Time;durP1;ratioP1;P1;durP2;ratioP2;P2;SDS_P1;SDS_P2;PMS_P1;PMS_P2;Temp;Humidity;BMP_temperature;BMP_pressure;BME280_temperature;BME280_humidity;BME280_pressure;Samples;Min_cycle;Max_cycle;Signal;HPM_P1;HPM_P2
2024/01/09 00:00:16;;;;;;;;;;;-3272.90;67.40;;;;;;5115007;27;19968;-61
2024/01/09 00:02:50;;;;;;;;;;;-3272.90;67.30;;;;;;5098596;28;20008;-62
2024/01/09 00:05:23;;;;;;;;;;;-3272.90;67.80;;;;;;5116678;27;19931;-61
2024/01/09 00:07:56;;;;;;;;;;;-3272.90;67.90;;;;;;5120532;27;20385;-62
2024/01/09 00:10:29;;;;;;;;;;;-3273.00;67.70;;;;;;5100911;27;20814;-61
2024/01/09 00:13:03;;;;;;;;;;;-3273.00;67.50;;;;;;5094363;28;19946;-61
2024/01/09 00:15:38;;;;;;;;;;;-3272.90;67.50;;;;;;5113744;27;19924;-62
2024/01/09 00:18:12;;;;;;;;;;;-3272.90;67.40;;;;;;5116118;27;19927;-61
2024/01/09 00:20:45;;;;;;;;;;;-3272.90;67.50;;;;;;5098070;27;19935;-62
2024/01/09 00:23:18;;;;;;;;;;;-3272.90;67.50;;;;;;5114105;27;19931;-62
2024/01/09 00:25:51;;;;;;;;;;;-3273.00;67.50;;;;;;5115102;27;19931;-63
2024/01/09 00:28:24;;;;;;;;;;;-3273.00;67.40;;;;;;5115445;27;20263;-62
2024/01/09 00:30:58;;;;;;;;;;;-3273.00;67.30;;;;;;5087505;27;19994;-61
2024/01/09 00:33:33;;;;;;;;;;;-3272.90;67.50;;;;;;5096182;28;19932;-61
2024/01/09 00:36:06;;;;;;;;;;;-3272.80;67.60;;;;;;5103231;27;19938;-63
2024/01/09 00:38:40;;;;;;;;;;;-3272.90;67.70;;;;;;5094988;28;19931;-61
2024/01/09 00:41:13;;;;;;;;;;;-3272.90;67.40;;;;;;5103468;27;19924;-62
2024/01/09 00:43:46;;;;;;;;;;;-3273.00;67.40;;;;;;5106058;27;20445;-63
2024/01/09 00:46:20;;;;;;;;;;;-3272.90;67.60;;;;;;5090322;28;19947;-61
2024/01/09 00:48:54;;;;;;;;;;;-3272.80;67.70;;;;;;5093878;28;19971;-60
2024/01/09 00:51:27;;;;;;;;;;;-3272.90;67.80;;;;;;5113900;27;19928;-66
2024/01/09 00:54:00;;;;;;;;;;;-3272.80;67.70;;;;;;5107218;27;19927;-71
2024/01/09 00:56:33;;;;;;;;;;;-3272.80;67.80;;;;;;5098210;27;19932;-67
2024/01/09 00:59:06;;;;;;;;;;;-3272.90;67.80;;;;;;5090629;28;20000;-68
2024/01/09 01:01:40;;;;;;;;;;;-3272.90;67.90;;;;;;5111903;27;20022;-65
2024/01/09 01:04:14;;;;;;;;;;;-3272.80;68.00;;;;;;5106845;27;20375;-68
2024/01/09 01:06:47;;;;;;;;;;;-3272.80;68.20;;;;;;5097805;28;19936;-68
2024/01/09 01:09:20;;;;;;;;;;;-3272.90;67.90;;;;;;5113213;27;20010;-67
2024/01/09 01:11:53;;;;;;;;;;;-3272.90;68.10;;;;;;5111967;27;19928;-66
2024/01/09 01:14:26;;;;;;;;;;;-3272.80;68.20;;;;;;5114319;27;20018;-66
2024/01/09 01:17:00;;;;;;;;;;;-3272.90;68.10;;;;;;5115228;27;20012;-67
2024/01/09 01:19:34;;;;;;;;;;;-3272.90;68.10;;;;;;5097239;28;19935;-71
2024/01/09 01:22:07;;;;;;;;;;;-3272.90;68.20;;;;;;5101971;27;19935;-66
2024/01/09 01:24:40;;;;;;;;;;;-3272.90;68.10;;;;;;5103533;27;19928;-67
2024/01/09 01:27:13;;;;;;;;;;;-3272.80;68.40;;;;;;5098875;27;19973;-69
2024/01/09 01:29:46;;;;;;;;;;;-3272.90;68.30;;;;;;5117989;27;20396;-67
2024/01/09 01:32:20;;;;;;;;;;;-3272.90;68.20;;;;;;5100514;28;19932;-68
2024/01/09 01:34:54;;;;;;;;;;;-3272.90;68.30;;;;;;5089033;28;19978;-68
2024/01/09 01:37:20;;;;;;;;;;;-3272.80;68.60;;;;;;5089909;28;19927;-67
2024/01/09 01:39:54;;;;;;;;;;;-3272.80;68.40;;;;;;5113651;27;19930;-67
2024/01/09 01:42:27;;;;;;;;;;;-3272.80;68.60;;;;;;5109882;27;19976;-68
2024/01/09 01:45:00;;;;;;;;;;;-3272.80;68.60;;;;;;5115330;27;20019;-69
2024/01/09 01:47:34;;;;;;;;;;;-3272.80;68.60;;;;;;5109136;27;20007;-68
2024/01/09 01:50:08;;;;;;;;;;;-3272.90;68.50;;;;;;5107858;27;19931;-67
2024/01/09 01:52:42;;;;;;;;;;;-3272.80;68.50;;;;;;5096623;28;19970;-67
2024/01/09 01:55:17;;;;;;;;;;;-3272.80;68.60;;;;;;5088306;28;19932;-67
2024/01/09 01:57:52;;;;;;;;;;;-3272.80;68.70;;;;;;5103419;27;20010;-67
2024/01/09 02:00:25;;;;;;;;;;;-3272.70;68.70;;;;;;5115920;27;19966;-70
2024/01/09 02:03:00;;;;;;;;;;;-3272.60;69.10;;;;;;5110050;27;19973;-70
2024/01/09 02:05:34;;;;;;;;;;;-3272.70;69.30;;;;;;5117589;27;20015;-69
2024/01/09 02:08:08;;;;;;;;;;;-3272.70;69.20;;;;;;5108028;27;20019;-70
2024/01/09 02:10:41;;;;;;;;;;;-3272.70;69.20;;;;;;5104197;27;19923;-70
2024/01/09 02:13:14;;;;;;;;;;;-3272.70;69.20;;;;;;5106476;27;19928;-70
2024/01/09 02:15:47;;;;;;;;;;;-3272.70;69.30;;;;;;5106164;27;20010;-70
2024/01/09 02:18:21;;;;;;;;;;;-3272.60;69.60;;;;;;5106930;27;19938;-69
2024/01/09 02:20:55;;;;;;;;;;;-3272.60;69.80;;;;;;5115228;27;20019;-70
2024/01/09 02:23:28;;;;;;;;;;;-3272.70;69.70;;;;;;5116379;27;19927;-71
2024/01/09 02:26:02;;;;;;;;;;;-3272.70;69.60;;;;;;5100552;28;19932;-70
2024/01/09 02:28:46;;;;;;;;;;;-3272.70;69.50;;;;;;5110516;28;19923;-69
2024/01/09 02:31:21;;;;;;;;;;;-3272.70;69.50;;;;;;5094208;28;20332;-71
2024/01/09 02:33:55;;;;;;;;;;;-3272.70;69.50;;;;;;5092231;28;19963;-72
2024/01/09 02:36:28;;;;;;;;;;;-3272.60;69.50;;;;;;5100948;28;19935;-69
2024/01/09 02:39:01;;;;;;;;;;;-3272.60;69.80;;;;;;5085283;28;20455;-69
2024/01/09 02:41:35;;;;;;;;;;;-3272.60;69.80;;;;;;5091576;28;20397;-71
2024/01/09 02:44:08;;;;;;;;;;;-3272.70;69.80;;;;;;5106103;28;20405;-71
2024/01/09 02:46:42;;;;;;;;;;;-3272.60;69.90;;;;;;5102915;28;20374;-69
2024/01/09 02:49:16;;;;;;;;;;;-3272.60;69.80;;;;;;5108009;28;19931;-70
2024/01/09 02:51:49;;;;;;;;;;;-3272.60;70.00;;;;;;5100589;28;19928;-70
2024/01/09 02:54:22;;;;;;;;;;;-3272.60;69.90;;;;;;5086957;28;19936;-71
2024/01/09 02:56:55;;;;;;;;;;;-3272.60;69.90;;;;;;5112996;28;19927;-69
2024/01/09 02:59:23;;;;;;;;;;;-3272.60;70.10;;;;;;5098328;28;19934;-69
2024/01/09 03:01:58;;;;;;;;;;;-3272.60;70.00;;;;;;5108905;28;19928;-69
2024/01/09 03:04:31;;;;;;;;;;;-3272.60;70.10;;;;;;5112454;28;19928;-71
2024/01/09 03:07:04;;;;;;;;;;;-3272.60;70.00;;;;;;5097054;28;19927;-69
2024/01/09 03:09:37;;;;;;;;;;;-3272.50;70.20;;;;;;5110786;27;19939;-65
2024/01/09 03:12:10;;;;;;;;;;;-3272.50;70.20;;;;;;5100823;27;19960;-66
2024/01/09 03:14:43;;;;;;;;;;;-3272.40;70.40;;;;;;5114486;27;19928;-65
2024/01/09 03:17:17;;;;;;;;;;;-3272.50;70.30;;;;;;5101371;27;20649;-67
2024/01/09 03:19:51;;;;;;;;;;;-3272.50;70.10;;;;;;5109782;27;19988;-66
2024/01/09 03:22:24;;;;;;;;;;;-3272.50;70.20;;;;;;5118467;27;19931;-66
2024/01/09 03:24:57;;;;;;;;;;;-3272.50;70.10;;;;;;5116288;27;20377;-67
2024/01/09 03:27:30;;;;;;;;;;;-3272.50;70.20;;;;;;5111058;27;20009;-66
2024/01/09 03:30:03;;;;;;;;;;;-3272.50;70.30;;;;;;5109034;27;19928;-66
2024/01/09 03:32:37;;;;;;;;;;;-3272.40;70.20;;;;;;5118463;27;19954;-67
2024/01/09 03:35:11;;;;;;;;;;;-3272.40;70.30;;;;;;5099349;27;19924;-67
2024/01/09 03:37:44;;;;;;;;;;;-3272.40;70.30;;;;;;5112511;27;20394;-66
2024/01/09 03:40:17;;;;;;;;;;;-3272.30;70.30;;;;;;5119981;27;20018;-65
2024/01/09 03:42:50;;;;;;;;;;;-3272.30;70.40;;;;;;5105263;27;19987;-66
2024/01/09 03:45:23;;;;;;;;;;;-3272.40;70.30;;;;;;5109476;27;19967;-66
2024/01/09 03:47:58;;;;;;;;;;;-3272.40;70.10;;;;;;5113625;27;19981;-65
2024/01/09 03:50:31;;;;;;;;;;;-3272.40;70.00;;;;;;5118548;27;19927;-66
2024/01/09 03:53:04;;;;;;;;;;;-3272.40;70.00;;;;;;5117826;27;19965;-67
2024/01/09 03:55:31;;;;;;;;;;;-3272.50;69.90;;;;;;5102407;27;20471;-64
2024/01/09 03:58:04;;;;;;;;;;;-3272.40;70.00;;;;;;5074097;28;20682;-66
2024/01/09 04:00:37;;;;;;;;;;;-3272.40;70.00;;;;;;5103552;28;20616;-64
2024/01/09 04:03:12;;;;;;;;;;;-3272.40;69.80;;;;;;5114875;27;20390;-67
2024/01/09 04:05:46;;;;;;;;;;;-3272.40;69.80;;;;;;5113246;27;19928;-66
2024/01/09 04:08:19;;;;;;;;;;;-3272.50;69.60;;;;;;5116501;27;20419;-67
2024/01/09 04:10:52;;;;;;;;;;;-3272.40;69.60;;;;;;5098646;27;19928;-66
2024/01/09 04:13:25;;;;;;;;;;;-3272.50;69.30;;;;;;5112913;27;20491;-64
2024/01/09 04:15:58;;;;;;;;;;;-3272.40;69.30;;;;;;5113439;27;19931;-66
2024/01/09 04:18:32;;;;;;;;;;;-3272.40;69.30;;;;;;5109381;27;20018;-67
2024/01/09 04:20:59;;;;;;;;;;;-3272.30;69.20;;;;;;5104153;27;19932;-62
2024/01/09 04:23:32;;;;;;;;;;;-3272.40;69.20;;;;;;5103470;27;19935;-60
2024/01/09 04:26:05;;;;;;;;;;;-3272.30;69.00;;;;;;5114902;27;19935;-60
2024/01/09 04:28:38;;;;;;;;;;;-3272.40;68.90;;;;;;5096484;28;20035;-60
2024/01/09 04:31:11;;;;;;;;;;;-3272.30;68.40;;;;;;5092523;28;19934;-61
2024/01/09 04:33:45;;;;;;;;;;;-3272.30;68.50;;;;;;5101605;27;19964;-62
2024/01/09 04:36:19;;;;;;;;;;;-3272.30;68.40;;;;;;5085263;28;20445;-61
2024/01/09 04:38:52;;;;;;;;;;;-3272.30;68.60;;;;;;5091079;28;20006;-60
2024/01/09 04:41:25;;;;;;;;;;;-3272.30;68.60;;;;;;5116990;27;19923;-61
2024/01/09 04:43:58;;;;;;;;;;;-3272.30;68.60;;;;;;5109954;27;19931;-61
2024/01/09 04:46:31;;;;;;;;;;;-3272.30;68.70;;;;;;5104322;27;19924;-61
2024/01/09 04:49:05;;;;;;;;;;;-3272.30;68.50;;;;;;5105441;27;19951;-62
2024/01/09 04:51:39;;;;;;;;;;;-3272.40;68.60;;;;;;5108171;27;19927;-62
2024/01/09 04:54:12;;;;;;;;;;;-3272.40;68.30;;;;;;5099853;27;19924;-60
2024/01/09 04:56:45;;;;;;;;;;;-3272.30;68.70;;;;;;5111884;27;19930;-60
2024/01/09 04:59:18;;;;;;;;;;;-3272.40;68.50;;;;;;5115107;27;20014;-60
2024/01/09 05:01:51;;;;;;;;;;;-3272.30;68.70;;;;;;5102322;27;19923;-60
2024/01/09 05:04:25;;;;;;;;;;;-3272.30;69.20;;;;;;5117805;27;20469;-59
2024/01/09 05:06:58;;;;;;;;;;;-3272.30;69.10;;;;;;5106932;27;20366;-60
2024/01/09 05:09:31;;;;;;;;;;;-3272.30;69.00;;;;;;5103236;27;20370;-62
2024/01/09 05:12:04;;;;;;;;;;;-3272.20;69.10;;;;;;5101333;27;20386;-62
2024/01/09 05:14:37;;;;;;;;;;;-3272.30;69.00;;;;;;5088521;28;19924;-61
2024/01/09 05:17:10;;;;;;;;;;;-3272.40;68.90;;;;;;5104486;27;19930;-61
2024/01/09 05:19:44;;;;;;;;;;;-3272.40;68.90;;;;;;5107439;27;19974;-59
2024/01/09 05:22:18;;;;;;;;;;;-3272.30;69.00;;;;;;5103298;27;19966;-62
2024/01/09 05:24:52;;;;;;;;;;;-3272.30;69.10;;;;;;5103456;27;20379;-60
2024/01/09 05:27:25;;;;;;;;;;;-3272.30;69.00;;;;;;5114499;27;19969;-60
2024/01/09 05:29:52;;;;;;;;;;;-3272.40;69.10;;;;;;5103719;27;19927;-69
2024/01/09 05:32:25;;;;;;;;;;;-3272.30;69.10;;;;;;5117757;27;19924;-68
2024/01/09 05:35:01;;;;;;;;;;;-3272.30;69.20;;;;;;5108736;27;20305;-69
2024/01/09 05:37:34;;;;;;;;;;;-3272.20;69.30;;;;;;5096572;28;19931;-70
2024/01/09 05:40:07;;;;;;;;;;;-3272.20;69.30;;;;;;5109849;27;19924;-67
2024/01/09 05:42:43;;;;;;;;;;;-3272.20;69.30;;;;;;5104014;28;19924;-70
2024/01/09 05:45:16;;;;;;;;;;;-3272.10;69.60;;;;;;5105881;28;20532;-69
2024/01/09 05:47:49;;;;;;;;;;;-3272.10;69.60;;;;;;5111013;27;19924;-69
2024/01/09 05:50:23;;;;;;;;;;;-3272.20;69.70;;;;;;5099241;27;19959;-71
2024/01/09 05:52:57;;;;;;;;;;;-3272.10;69.70;;;;;;5104621;27;19935;-67
2024/01/09 05:55:30;;;;;;;;;;;-3272.20;69.60;;;;;;5113132;27;19924;-70
2024/01/09 05:58:03;;;;;;;;;;;-3272.30;69.60;;;;;;5095116;28;19932;-70
2024/01/09 06:00:43;;;;;;;;;;;-3272.10;69.40;;;;;;5117802;27;19928;-71
2024/01/09 06:03:16;;;;;;;;;;;-3272.10;69.60;;;;;;5108313;27;19936;-70
2024/01/09 06:05:50;;;;;;;;;;;-3272.20;69.60;;;;;;5103220;27;20015;-71
2024/01/09 06:08:24;;;;;;;;;;;-3272.20;69.40;;;;;;5115138;27;19927;-69
2024/01/09 06:10:57;;;;;;;;;;;-3272.10;69.40;;;;;;5107978;27;19928;-70
2024/01/09 06:13:30;;;;;;;;;;;-3272.10;69.50;;;;;;5106101;27;19924;-69
2024/01/09 06:16:03;;;;;;;;;;;-3272.10;69.40;;;;;;5116424;27;19951;-70
2024/01/09 06:18:36;;;;;;;;;;;-3272.10;69.40;;;;;;5104079;28;19935;-70
2024/01/09 06:21:10;;;;;;;;;;;-3272.10;69.40;;;;;;5099041;27;19935;-69
2024/01/09 06:23:47;;;;;;;;;;;-3272.10;69.40;;;;;;5115539;27;19928;-70
2024/01/09 06:26:20;;;;;;;;;;;-3272.10;69.60;;;;;;5094832;28;19928;-70
2024/01/09 06:28:53;;;;;;;;;;;-3272.10;69.50;;;;;;5113744;28;19931;-70
2024/01/09 06:31:26;;;;;;;;;;;-3272.10;69.40;;;;;;5107196;28;20455;-70
2024/01/09 06:33:59;;;;;;;;;;;-3272.10;69.40;;;;;;5111125;27;19924;-69
2024/01/09 06:36:33;;;;;;;;;;;-3272.10;69.30;;;;;;5119009;28;20389;-70
2024/01/09 06:39:06;;;;;;;;;;;-3272.10;69.60;;;;;;5091435;28;20397;-67
2024/01/09 06:41:39;;;;;;;;;;;-3272.10;69.40;;;;;;5112644;28;19928;-67
2024/01/09 06:44:12;;;;;;;;;;;-3272.20;69.40;;;;;;5118005;27;19936;-67
2024/01/09 06:46:45;;;;;;;;;;;-3272.10;69.40;;;;;;5099314;28;19924;-67
2024/01/09 06:49:18;;;;;;;;;;;-3272.10;69.50;;;;;;5110853;27;19927;-67
2024/01/09 06:51:53;;;;;;;;;;;-3272.10;69.70;;;;;;5121933;27;19931;-67
2024/01/09 06:54:27;;;;;;;;;;;-3272.00;69.50;;;;;;5120970;27;20279;-69
2024/01/09 06:57:00;;;;;;;;;;;-3272.00;69.80;;;;;;5120859;27;21581;-67
2024/01/09 06:59:26;;;;;;;;;;;-3272.10;69.70;;;;;;5100852;28;19992;-67
2024/01/09 07:02:01;;;;;;;;;;;-3272.10;69.50;;;;;;5108614;27;19928;-68
2024/01/09 07:04:34;;;;;;;;;;;-3272.10;69.60;;;;;;5114900;27;19924;-67
2024/01/09 07:07:12;;;;;;;;;;;-3272.10;69.50;;;;;;5110127;27;20022;-67
2024/01/09 07:09:45;;;;;;;;;;;-3272.10;69.50;;;;;;5112454;27;19934;-67
2024/01/09 07:12:18;;;;;;;;;;;-3272.20;69.50;;;;;;5118549;27;20407;-67
2024/01/09 07:14:51;;;;;;;;;;;-3272.20;69.50;;;;;;5121341;27;19954;-67
2024/01/09 07:17:38;;;;;;;;;;;-3272.20;69.40;;;;;;5096745;27;25858;-66
2024/01/09 07:20:18;;;;;;;;;;;-3272.10;69.40;;;;;;5093366;27;19928;-66
2024/01/09 07:22:54;;;;;;;;;;;-3271.90;69.60;;;;;;5117452;27;19934;-67
2024/01/09 07:25:27;;;;;;;;;;;-3271.90;70.00;;;;;;5102510;27;20383;-66
2024/01/09 07:28:00;;;;;;;;;;;-3271.80;70.20;;;;;;5093290;28;19928;-67
2024/01/09 07:30:33;;;;;;;;;;;-3271.80;70.30;;;;;;5115049;27;19924;-68
2024/01/09 07:33:06;;;;;;;;;;;-3271.90;70.30;;;;;;5102203;27;19928;-67
2024/01/09 07:35:39;;;;;;;;;;;-3271.90;70.10;;;;;;5115265;27;19935;-67
2024/01/09 07:38:07;;;;;;;;;;;-3271.90;69.80;;;;;;5118288;27;19992;-66
2024/01/09 07:40:40;;;;;;;;;;;-3271.70;70.00;;;;;;5117829;27;20381;-67
2024/01/09 07:43:13;;;;;;;;;;;-3271.70;70.10;;;;;;5101019;27;19955;-67
2024/01/09 07:45:46;;;;;;;;;;;-3271.70;70.50;;;;;;5107422;27;19981;-66
2024/01/09 07:48:19;;;;;;;;;;;-3271.80;70.10;;;;;;5100462;27;19969;-65
2024/01/09 07:50:52;;;;;;;;;;;-3271.70;70.20;;;;;;5119374;27;19973;-69
2024/01/09 07:53:26;;;;;;;;;;;-3271.70;70.50;;;;;;5104161;27;19930;-69
2024/01/09 07:56:13;;;;;;;;;;;-3271.80;70.20;;;;;;5090904;28;19932;-70
2024/01/09 07:58:47;;;;;;;;;;;-3271.80;70.30;;;;;;5094137;28;19973;-70
2024/01/09 08:01:20;;;;;;;;;;;-3271.80;70.40;;;;;;5096382;28;19935;-70
2024/01/09 08:03:53;;;;;;;;;;;-3271.60;70.50;;;;;;5117728;27;19985;-69
2024/01/09 08:06:26;;;;;;;;;;;-3271.70;70.80;;;;;;5114319;27;19942;-70
2024/01/09 08:08:54;;;;;;;;;;;-3271.80;70.70;;;;;;5111008;27;19992;-70
2024/01/09 08:11:27;;;;;;;;;;;-3271.80;70.50;;;;;;5106234;28;20411;-69
2024/01/09 08:14:00;;;;;;;;;;;-3271.80;70.60;;;;;;5115908;27;20044;-70
2024/01/09 08:16:33;;;;;;;;;;;-3271.70;70.40;;;;;;5104548;27;20027;-70
2024/01/09 08:19:06;;;;;;;;;;;-3271.80;70.60;;;;;;5105892;27;19935;-69
2024/01/09 08:21:40;;;;;;;;;;;-3271.80;70.50;;;;;;5099121;28;19932;-69
2024/01/09 08:24:18;;;;;;;;;;;-3271.80;70.40;;;;;;5108706;27;20099;-69
2024/01/09 08:26:51;;;;;;;;;;;-3271.90;70.30;;;;;;5101404;27;19993;-70
2024/01/09 08:29:27;;;;;;;;;;;-3271.90;70.30;;;;;;5120256;27;19935;-70
2024/01/09 08:32:00;;;;;;;;;;;-3271.80;70.40;;;;;;5108975;27;20800;-68
2024/01/09 08:34:33;;;;;;;;;;;-3271.80;70.40;;;;;;5100328;27;20776;-69
2024/01/09 08:37:06;;;;;;;;;;;-3271.90;70.30;;;;;;5097498;27;19934;-70
2024/01/09 08:39:40;;;;;;;;;;;-3271.80;70.10;;;;;;5114251;27;20010;-69
2024/01/09 08:42:14;;;;;;;;;;;-3271.90;70.20;;;;;;5117957;27;19924;-70
2024/01/09 08:44:47;;;;;;;;;;;-3271.80;70.30;;;;;;5118699;27;19973;-69
2024/01/09 08:47:20;;;;;;;;;;;-3271.80;70.30;;;;;;5103989;27;19980;-70
2024/01/09 08:49:53;;;;;;;;;;;-3271.90;70.30;;;;;;5118100;27;19931;-69
2024/01/09 08:52:27;;;;;;;;;;;-3271.90;70.10;;;;;;5109806;27;19959;-70
2024/01/09 08:55:03;;;;;;;;;;;-3271.90;69.70;;;;;;5117392;27;19963;-68
2024/01/09 08:57:36;;;;;;;;;;;-3272.00;69.70;;;;;;5104370;27;20297;-68
2024/01/09 09:00:09;;;;;;;;;;;-3272.10;69.40;;;;;;5100432;27;20378;-66
2024/01/09 09:02:43;;;;;;;;;;;-3272.00;69.00;;;;;;5118448;27;20374;-65
2024/01/09 09:05:16;;;;;;;;;;;-3272.10;69.30;;;;;;5099587;27;20046;-68
2024/01/09 09:07:43;;;;;;;;;;;-3272.10;68.70;;;;;;5102857;27;19928;-68
2024/01/09 09:10:17;;;;;;;;;;;-3272.20;68.60;;;;;;5106180;27;19932;-68
2024/01/09 09:12:51;;;;;;;;;;;-3272.10;68.40;;;;;;5099146;28;19935;-67
2024/01/09 09:15:24;;;;;;;;;;;-3272.30;68.10;;;;;;5111811;27;19930;-69
2024/01/09 09:17:57;;;;;;;;;;;-3272.30;67.80;;;;;;5116283;27;19963;-67
2024/01/09 09:20:30;;;;;;;;;;;-3272.20;67.70;;;;;;5097944;27;19923;-66
2024/01/09 09:23:05;;;;;;;;;;;-3272.30;67.60;;;;;;5116339;27;19927;-67
2024/01/09 09:25:40;;;;;;;;;;;-3272.40;67.60;;;;;;5117931;27;19935;-67
2024/01/09 09:28:14;;;;;;;;;;;-3272.40;67.40;;;;;;5098910;27;20186;-68
2024/01/09 09:30:47;;;;;;;;;;;-3272.40;67.10;;;;;;5103043;27;19955;-68
2024/01/09 09:33:20;;;;;;;;;;;-3272.40;66.90;;;;;;5115207;27;20028;-66
2024/01/09 09:35:53;;;;;;;;;;;-3272.50;66.80;;;;;;5109292;27;19924;-66
2024/01/09 09:38:26;;;;;;;;;;;-3272.60;66.60;;;;;;5113185;27;19927;-67
2024/01/09 09:41:04;;;;;;;;;;;-3272.50;66.70;;;;;;5089997;28;19935;-67
2024/01/09 09:43:39;;;;;;;;;;;-3272.60;66.30;;;;;;5112121;27;19928;-66
2024/01/09 09:46:17;;;;;;;;;;;-3272.60;66.30;;;;;;5098953;28;19978;-68
2024/01/09 09:48:53;;;;;;;;;;;-3272.60;66.30;;;;;;5105786;27;19993;-67
2024/01/09 09:51:26;;;;;;;;;;;-3272.60;66.00;;;;;;5114194;27;19924;-67
2024/01/09 09:53:54;;;;;;;;;;;-3272.70;66.00;;;;;;5109279;27;19927;-68
2024/01/09 09:56:28;;;;;;;;;;;-3272.80;65.70;;;;;;5108122;27;19923;-67
2024/01/09 09:59:02;;;;;;;;;;;-3272.90;65.30;;;;;;5100049;27;19943;-65
2024/01/09 10:01:35;;;;;;;;;;;-3272.90;65.40;;;;;;5110160;27;19958;-67
2024/01/09 10:04:11;;;;;;;;;;;-3272.90;65.30;;;;;;5080410;27;20294;-66
2024/01/09 10:06:45;;;;;;;;;;;-3273.00;65.20;;;;;;5110558;27;19936;-68
2024/01/09 10:09:18;;;;;;;;;;;-3273.00;65.20;;;;;;5116492;27;19930;-69
2024/01/09 10:11:58;;;;;;;;;;;-3273.10;65.00;;;;;;5110863;27;19924;-68
2024/01/09 10:14:32;;;;;;;;;;;-3273.20;65.00;;;;;;5116081;27;20390;-69
2024/01/09 10:17:05;;;;;;;;;;;-3273.20;65.30;;;;;;5116647;28;20027;-70
2024/01/09 10:19:38;;;;;;;;;;;-3273.20;65.10;;;;;;5107225;27;19930;-69
2024/01/09 10:22:11;;;;;;;;;;;-3273.30;65.10;;;;;;5105676;27;19932;-70
2024/01/09 10:24:45;;;;;;;;;;;-3273.40;64.80;;;;;;5108590;27;19924;-70
2024/01/09 10:27:21;;;;;;;;;;;-3273.30;64.60;;;;;;5105119;27;19931;-69
2024/01/09 10:29:55;;;;;;;;;;;-3273.40;64.40;;;;;;5103008;28;19972;-71
2024/01/09 10:32:28;;;;;;;;;;;-3273.50;63.80;;;;;;5099901;28;20026;-71
2024/01/09 10:35:03;;;;;;;;;;;-3273.60;63.90;;;;;;5107441;28;20026;-71
2024/01/09 10:37:36;;;;;;;;;;;-3273.50;63.70;;;;;;5102424;28;19952;-71
2024/01/09 10:40:11;;;;;;;;;;;-3273.60;63.40;;;;;;5106119;28;19932;-70
2024/01/09 10:42:47;;;;;;;;;;;-3273.60;63.20;;;;;;5103253;28;20382;-71
2024/01/09 10:45:23;;;;;;;;;;;-3273.70;62.60;;;;;;5113121;28;20374;-71
2024/01/09 10:47:57;;;;;;;;;;;-3273.70;62.50;;;;;;5103976;28;19923;-71
2024/01/09 10:50:30;;;;;;;;;;;-3273.70;62.40;;;;;;5111252;28;19928;-70
2024/01/09 10:53:03;;;;;;;;;;;-3273.90;62.10;;;;;;5115084;28;19981;-72
2024/01/09 10:55:37;;;;;;;;;;;-3273.80;61.60;;;;;;5117392;28;19923;-71
2024/01/09 10:58:12;;;;;;;;;;;-3273.90;61.40;;;;;;5114016;28;20405;-70
2024/01/09 11:00:45;;;;;;;;;;;-3273.90;61.20;;;;;;5111193;28;19923;-71
2024/01/09 11:03:19;;;;;;;;;;;-3274.00;61.00;;;;;;5092006;28;19924;-70
2024/01/09 11:05:54;;;;;;;;;;;-3274.10;60.50;;;;;;5095496;28;20408;-71
2024/01/09 11:08:27;;;;;;;;;;;-3274.20;60.70;;;;;;5109294;28;19930;-71
2024/01/09 11:11:03;;;;;;;;;;;-3274.20;60.80;;;;;;5107611;28;19972;-71
2024/01/09 11:13:40;;;;;;;;;;;-3274.30;60.20;;;;;;5106653;28;21261;-71
2024/01/09 11:16:14;;;;;;;;;;;-3274.30;60.30;;;;;;5114867;28;19984;-69
2024/01/09 11:18:49;;;;;;;;;;;-3274.40;59.90;;;;;;5093341;28;20443;-70
2024/01/09 11:21:24;;;;;;;;;;;-3274.50;59.30;;;;;;5112230;28;19959;-67
2024/01/09 11:23:57;;;;;;;;;;;-3274.40;59.10;;;;;;5115168;28;19970;-69
2024/01/09 11:26:34;;;;;;;;;;;-3274.50;58.50;;;;;;5108969;28;19923;-66
2024/01/09 11:29:08;;;;;;;;;;;-3274.60;58.00;;;;;;5115553;28;20002;-68
2024/01/09 11:31:42;;;;;;;;;;;-3274.60;57.70;;;;;;5120784;27;19924;-68
2024/01/09 11:34:26;;;;;;;;;;;-3274.60;58.00;;;;;;5097822;27;20022;-68
2024/01/09 11:36:59;;;;;;;;;;;-3274.70;57.90;;;;;;5104248;27;19927;-67
2024/01/09 11:39:32;;;;;;;;;;;-3274.60;57.80;;;;;;5120698;27;19931;-67
2024/01/09 11:42:05;;;;;;;;;;;-3274.70;57.60;;;;;;5118503;27;19935;-67
2024/01/09 11:44:39;;;;;;;;;;;-3274.70;57.80;;;;;;5101776;28;19971;-67
2024/01/09 11:47:13;;;;;;;;;;;-3274.80;57.90;;;;;;5100227;27;20011;-68
2024/01/09 11:49:47;;;;;;;;;;;-3274.80;58.00;;;;;;5098242;27;20302;-67
2024/01/09 11:52:21;;;;;;;;;;;-3274.80;57.70;;;;;;5120403;27;19934;-66
2024/01/09 11:54:55;;;;;;;;;;;-3274.90;58.10;;;;;;5116059;27;19923;-66
2024/01/09 11:57:28;;;;;;;;;;;-3274.90;57.70;;;;;;5105543;27;19924;-68
2024/01/09 12:00:04;;;;;;;;;;;-3274.90;57.70;;;;;;5096921;28;19924;-67
2024/01/09 12:02:37;;;;;;;;;;;-3275.00;57.20;;;;;;5098620;28;19927;-68
2024/01/09 12:05:10;;;;;;;;;;;-3275.00;56.80;;;;;;5089422;28;19935;-66
2024/01/09 12:07:44;;;;;;;;;;;-3275.00;57.20;;;;;;5095222;28;20275;-68
2024/01/09 12:10:23;;;;;;;;;;;-3275.00;57.10;;;;;;5118755;27;19928;-65
2024/01/09 12:13:02;;;;;;;;;;;-3275.00;56.90;;;;;;5104041;27;19985;-67
2024/01/09 12:15:36;;;;;;;;;;;-3275.10;56.90;;;;;;5121538;27;19952;-67
2024/01/09 12:18:16;;;;;;;;;;;-3275.10;56.70;;;;;;5110044;27;19928;-65
2024/01/09 12:20:50;;;;;;;;;;;-3275.10;57.10;;;;;;5108816;27;19967;-67
2024/01/09 12:23:23;;;;;;;;;;;-3275.10;57.30;;;;;;5102249;27;19935;-68
2024/01/09 12:25:56;;;;;;;;;;;-3275.20;57.10;;;;;;5089879;28;19932;-67
2024/01/09 12:28:29;;;;;;;;;;;-3275.20;56.40;;;;;;5100852;27;19959;-68
2024/01/09 12:31:03;;;;;;;;;;;-3275.20;56.50;;;;;;5110729;27;20514;-69
2024/01/09 12:33:37;;;;;;;;;;;-3275.20;56.60;;;;;;5113033;27;19934;-69
2024/01/09 12:36:18;;;;;;;;;;;-3275.20;56.80;;;;;;5095610;28;19927;-69
2024/01/09 12:38:52;;;;;;;;;;;-3275.20;56.60;;;;;;5100784;27;19928;-70
2024/01/09 12:41:26;;;;;;;;;;;-3275.30;56.50;;;;;;5088423;27;20435;-71
2024/01/09 12:44:08;;;;;;;;;;;-3275.30;56.30;;;;;;5111724;27;19976;-70
2024/01/09 12:46:44;;;;;;;;;;;-3275.30;55.90;;;;;;5114129;27;19927;-69
2024/01/09 12:49:17;;;;;;;;;;;-3275.40;55.80;;;;;;5106567;27;19989;-70
2024/01/09 12:51:50;;;;;;;;;;;-3275.40;56.00;;;;;;5096621;28;19928;-70
2024/01/09 12:54:17;;;;;;;;;;;-3275.40;56.00;;;;;;5105659;27;19942;-69
2024/01/09 12:56:50;;;;;;;;;;;-3275.40;56.30;;;;;;5094103;28;19939;-70
2024/01/09 12:59:22;;;;;;;;;;;-3275.40;56.30;;;;;;5118606;27;19932;-68
2024/01/09 13:01:57;;;;;;;;;;;-3275.40;56.10;;;;;;5115035;27;19954;-70
2024/01/09 13:04:30;;;;;;;;;;;-3275.50;56.30;;;;;;5119579;27;19928;-70
2024/01/09 13:07:04;;;;;;;;;;;-3275.50;56.30;;;;;;5101339;27;19939;-69
2024/01/09 13:09:37;;;;;;;;;;;-3275.40;56.20;;;;;;5111195;27;19924;-69
2024/01/09 13:12:10;;;;;;;;;;;-3275.50;55.90;;;;;;5114923;27;19923;-69
2024/01/09 13:14:43;;;;;;;;;;;-3275.50;56.10;;;;;;5104630;27;19923;-70
2024/01/09 13:17:23;;;;;;;;;;;-3275.50;56.10;;;;;;5116316;27;20006;-69
2024/01/09 13:19:57;;;;;;;;;;;-3275.50;56.30;;;;;;5095624;27;19932;-71
2024/01/09 13:22:30;;;;;;;;;;;-3275.50;56.50;;;;;;5103057;27;20018;-69
2024/01/09 13:25:04;;;;;;;;;;;-3275.50;56.80;;;;;;5101679;27;20038;-69
2024/01/09 13:27:37;;;;;;;;;;;-3275.50;56.50;;;;;;5110296;27;20377;-70
2024/01/09 13:30:10;;;;;;;;;;;-3275.50;56.40;;;;;;5097675;27;19985;-70
2024/01/09 13:32:44;;;;;;;;;;;-3275.50;56.20;;;;;;5114595;27;19980;-70
2024/01/09 13:35:11;;;;;;;;;;;-3275.60;55.90;;;;;;5106320;27;19924;-69
2024/01/09 13:37:44;;;;;;;;;;;-3275.60;55.50;;;;;;5112473;27;19966;-70
2024/01/09 13:40:17;;;;;;;;;;;-3275.60;55.70;;;;;;5109739;27;19939;-70
2024/01/09 13:42:50;;;;;;;;;;;-3275.60;55.70;;;;;;5105285;27;19946;-70
2024/01/09 13:45:23;;;;;;;;;;;-3275.60;55.90;;;;;;5088337;27;20283;-68
2024/01/09 13:47:59;;;;;;;;;;;-3275.60;55.70;;;;;;5112084;27;19924;-68
2024/01/09 13:50:32;;;;;;;;;;;-3275.60;55.60;;;;;;5107357;27;20002;-69
2024/01/09 13:53:05;;;;;;;;;;;-3275.60;55.70;;;;;;5094400;28;19978;-70
2024/01/09 13:55:38;;;;;;;;;;;-3275.60;56.10;;;;;;5093060;28;20021;-70
2024/01/09 13:58:11;;;;;;;;;;;-3275.60;56.20;;;;;;5099036;27;19924;-70
2024/01/09 14:00:44;;;;;;;;;;;-3275.60;56.40;;;;;;5115533;27;20015;-69
2024/01/09 14:03:18;;;;;;;;;;;-3275.60;56.10;;;;;;5095033;27;19930;-69
2024/01/09 14:05:53;;;;;;;;;;;-3275.60;56.30;;;;;;5098726;27;20295;-68
2024/01/09 14:08:26;;;;;;;;;;;-3275.60;56.70;;;;;;5116344;27;20378;-69
2024/01/09 14:10:59;;;;;;;;;;;-3275.70;56.70;;;;;;5102427;27;19923;-69
2024/01/09 14:13:32;;;;;;;;;;;-3275.70;56.60;;;;;;5118558;27;19923;-68
2024/01/09 14:16:05;;;;;;;;;;;-3275.70;56.80;;;;;;5116115;27;19927;-69